createdAt,value
2019-01-26T00:00:09.034Z,0
2019-01-26T00:01:09.738Z,0
2019-01-26T00:02:09.714Z,0
2019-01-26T00:03:09.708Z,0
2019-01-26T00:04:09.674Z,0
2019-01-26T00:05:09.673Z,0
2019-01-26T00:06:09.130Z,0
2019-01-26T00:07:09.623Z,0
2019-01-26T00:08:09.598Z,0
2019-01-26T00:09:09.571Z,0
2019-01-26T00:10:09.383Z,0
2019-01-26T00:11:09.690Z,0
2019-01-26T00:12:09.512Z,0
2019-01-26T00:13:09.283Z,0
2019-01-26T00:14:09.465Z,0
2019-01-26T00:15:09.446Z,0
2019-01-26T00:16:09.422Z,0
2019-01-26T00:17:09.405Z,0
2019-01-26T00:18:09.388Z,0
2019-01-26T00:19:09.365Z,0
2019-01-26T00:20:09.341Z,0
2019-01-26T00:21:22.054Z,0
2019-01-26T00:22:09.306Z,0
2019-01-26T00:23:09.293Z,0
2019-01-26T00:24:09.268Z,0
2019-01-26T00:25:08.765Z,0
2019-01-26T00:26:09.247Z,0
2019-01-26T00:27:08.950Z,0
2019-01-26T00:28:08.438Z,0
2019-01-26T00:29:09.161Z,0
2019-01-26T00:30:09.148Z,0
2019-01-26T00:31:08.868Z,0
2019-01-26T00:32:09.094Z,0
2019-01-26T00:33:10.449Z,0
2019-01-26T00:34:08.567Z,0
2019-01-26T00:35:09.041Z,0
2019-01-26T00:36:09.016Z,0
2019-01-26T00:37:08.996Z,0
2019-01-26T00:38:08.718Z,0
2019-01-26T00:39:08.944Z,0
2019-01-26T00:40:08.696Z,0
2019-01-26T00:41:08.914Z,0
2019-01-26T00:42:08.883Z,0
2019-01-26T00:43:08.863Z,0
2019-01-26T00:44:08.848Z,0
2019-01-26T00:45:08.840Z,0
2019-01-26T00:46:08.553Z,0
2019-01-26T00:47:08.539Z,0
2019-01-26T00:48:08.762Z,0
2019-01-26T00:49:08.731Z,0
2019-01-26T00:50:08.730Z,0
2019-01-26T00:51:08.445Z,0
2019-01-26T00:52:08.673Z,0
2019-01-26T00:53:08.653Z,0
2019-01-26T00:54:08.629Z,0
2019-01-26T00:55:08.613Z,0
2019-01-26T00:56:08.349Z,0
2019-01-26T00:57:08.583Z,0
2019-01-26T00:58:08.304Z,0
2019-01-26T00:59:08.684Z,0
2019-01-26T01:00:08.513Z,0
2019-01-26T01:01:08.488Z,0
2019-01-26T01:02:08.222Z,0
2019-01-26T01:03:08.457Z,0
2019-01-26T01:04:08.184Z,0
2019-01-26T01:05:08.411Z,0
2019-01-26T01:06:08.383Z,0
2019-01-26T01:07:08.366Z,0
2019-01-26T01:08:08.341Z,0
2019-01-26T01:09:08.083Z,0
2019-01-26T01:10:08.305Z,0
2019-01-26T01:11:08.034Z,0
2019-01-26T01:12:08.255Z,0
2019-01-26T01:13:08.238Z,0
2019-01-26T01:14:08.215Z,0
2019-01-26T01:15:08.193Z,0
2019-01-26T01:16:08.168Z,0
2019-01-26T01:17:08.156Z,0
2019-01-26T01:18:07.889Z,0
2019-01-26T01:19:08.037Z,0
2019-01-26T01:20:08.094Z,0
2019-01-26T01:21:09.071Z,0
2019-01-26T01:22:07.802Z,0
2019-01-26T01:23:07.783Z,0
2019-01-26T01:24:08.029Z,0
2019-01-26T01:25:07.799Z,0
2019-01-26T01:26:08.004Z,0
2019-01-26T01:27:07.958Z,0
2019-01-26T01:28:07.953Z,0
2019-01-26T01:29:07.905Z,0
2019-01-26T01:30:07.633Z,0
2019-01-26T01:31:07.863Z,0
2019-01-26T01:32:07.841Z,0
2019-01-26T01:33:07.323Z,0
2019-01-26T01:34:07.801Z,0
2019-01-26T01:35:07.776Z,0
2019-01-26T01:36:07.751Z,0
2019-01-26T01:37:07.738Z,0
2019-01-26T01:38:07.469Z,0
2019-01-26T01:39:07.202Z,0
2019-01-26T01:40:07.665Z,0
2019-01-26T01:41:07.652Z,0
2019-01-26T01:42:07.635Z,0
2019-01-26T01:43:07.613Z,0
2019-01-26T01:44:07.594Z,0
2019-01-26T01:45:07.325Z,0
2019-01-26T01:46:07.545Z,0
2019-01-26T01:47:07.521Z,0
2019-01-26T01:48:07.259Z,0
2019-01-26T01:49:07.493Z,0
2019-01-26T01:50:07.465Z,0
2019-01-26T01:51:07.438Z,0
2019-01-26T01:52:07.442Z,0
2019-01-26T01:53:07.154Z,0
2019-01-26T01:54:07.141Z,0
2019-01-26T01:55:07.112Z,0
2019-01-26T01:56:07.099Z,0
2019-01-26T01:57:07.075Z,0
2019-01-26T01:58:07.294Z,0
2019-01-26T01:59:07.386Z,0
2019-01-26T02:00:07.027Z,0
2019-01-26T02:01:07.241Z,0
2019-01-26T02:02:07.207Z,0
2019-01-26T02:03:06.946Z,0
2019-01-26T02:04:07.169Z,0
2019-01-26T02:05:07.191Z,0
2019-01-26T02:06:07.132Z,0
2019-01-26T02:07:07.111Z,0
2019-01-26T02:08:06.840Z,0
2019-01-26T02:09:07.066Z,0
2019-01-26T02:10:07.047Z,0
2019-01-26T02:11:07.024Z,0
2019-01-26T02:12:06.763Z,0
2019-01-26T02:13:06.982Z,0
2019-01-26T02:14:06.711Z,0
2019-01-26T02:15:06.693Z,0
2019-01-26T02:16:06.678Z,0
2019-01-26T02:17:06.648Z,0
2019-01-26T02:18:06.881Z,0
2019-01-26T02:19:06.863Z,0
2019-01-26T02:20:06.841Z,0
2019-01-26T02:21:06.814Z,0
2019-01-26T02:22:06.792Z,0
2019-01-26T02:23:06.780Z,0
2019-01-26T02:24:06.750Z,0
2019-01-26T02:25:06.734Z,0
2019-01-26T02:26:07.011Z,0
2019-01-26T02:27:06.691Z,0
2019-01-26T02:28:06.428Z,0
2019-01-26T02:29:06.402Z,0
2019-01-26T02:30:06.662Z,0
2019-01-26T02:31:06.642Z,0
2019-01-26T02:32:06.601Z,0
2019-01-26T02:33:06.569Z,0
2019-01-26T02:34:06.305Z,0
2019-01-26T02:35:06.518Z,0
2019-01-26T02:36:06.267Z,0
2019-01-26T02:37:06.491Z,0
2019-01-26T02:38:06.479Z,0
2019-01-26T02:39:06.207Z,0
2019-01-26T02:40:06.427Z,0
2019-01-26T02:41:06.401Z,0
2019-01-26T02:42:06.386Z,0
2019-01-26T02:43:06.377Z,0
2019-01-26T02:44:06.347Z,0
2019-01-26T02:45:06.326Z,0
2019-01-26T02:46:06.487Z,0
2019-01-26T02:47:07.747Z,0
2019-01-26T02:48:06.265Z,0
2019-01-26T02:49:06.248Z,0
2019-01-26T02:50:05.996Z,0
2019-01-26T02:51:06.190Z,0
2019-01-26T02:52:05.949Z,0
2019-01-26T02:53:06.258Z,0
2019-01-26T02:54:06.140Z,0
2019-01-26T02:55:06.115Z,0
2019-01-26T02:56:05.844Z,0
2019-01-26T02:57:06.085Z,0
2019-01-26T02:58:06.051Z,0
2019-01-26T02:59:05.781Z,0
2019-01-26T03:00:06.019Z,0
2019-01-26T03:01:05.747Z,0
2019-01-26T03:02:05.972Z,0
2019-01-26T03:03:05.943Z,0
2019-01-26T03:04:05.923Z,0
2019-01-26T03:05:05.909Z,0
2019-01-26T03:06:05.643Z,0
2019-01-26T03:07:05.875Z,0
2019-01-26T03:08:05.341Z,0
2019-01-26T03:09:05.821Z,0
2019-01-26T03:10:05.796Z,0
2019-01-26T03:11:05.781Z,0
2019-01-26T03:12:05.526Z,0
2019-01-26T03:13:05.749Z,0
2019-01-26T03:14:05.709Z,0
2019-01-26T03:15:05.696Z,0
2019-01-26T03:16:05.518Z,0
2019-01-26T03:17:12.977Z,0
2019-01-26T03:18:05.394Z,0
2019-01-26T03:19:05.617Z,0
2019-01-26T03:20:05.595Z,0
2019-01-26T03:21:05.320Z,0
2019-01-26T03:22:05.299Z,0
2019-01-26T03:23:05.287Z,0
2019-01-26T03:24:05.512Z,0
2019-01-26T03:25:05.234Z,0
2019-01-26T03:26:05.216Z,0
2019-01-26T03:27:05.440Z,0
2019-01-26T03:28:05.201Z,0
2019-01-26T03:29:05.155Z,0
2019-01-26T03:30:05.274Z,0
2019-01-26T03:31:05.418Z,0
2019-01-26T03:32:05.149Z,0
2019-01-26T03:33:05.360Z,0
2019-01-26T03:34:05.068Z,0
2019-01-26T03:35:05.294Z,0
2019-01-26T03:36:04.761Z,0
2019-01-26T03:37:05.266Z,0
2019-01-26T03:38:05.229Z,0
2019-01-26T03:39:05.205Z,0
2019-01-26T03:40:05.180Z,0
2019-01-26T03:41:04.939Z,0
2019-01-26T03:42:04.907Z,0
2019-01-26T03:43:04.883Z,0
2019-01-26T03:44:05.098Z,0
2019-01-26T03:45:04.843Z,0
2019-01-26T03:46:05.075Z,0
2019-01-26T03:47:05.038Z,0
2019-01-26T03:48:05.020Z,0
2019-01-26T03:49:05.028Z,0
2019-01-26T03:50:04.982Z,0
2019-01-26T03:51:04.701Z,0
2019-01-26T03:52:04.956Z,0
2019-01-26T03:53:04.658Z,0
2019-01-26T03:54:04.892Z,0
2019-01-26T03:55:04.948Z,0
2019-01-26T03:56:04.593Z,0
2019-01-26T03:57:04.603Z,0
2019-01-26T03:58:04.816Z,0
2019-01-26T03:59:04.795Z,0
2019-01-26T04:00:04.584Z,0
2019-01-26T04:01:04.756Z,0
2019-01-26T04:02:04.475Z,0
2019-01-26T04:03:04.707Z,0
2019-01-26T04:04:04.675Z,0
2019-01-26T04:05:04.663Z,0
2019-01-26T04:06:04.405Z,0
2019-01-26T04:07:04.612Z,0
2019-01-26T04:08:04.592Z,0
2019-01-26T04:09:04.582Z,0
2019-01-26T04:10:04.563Z,0
2019-01-26T04:11:04.284Z,0
2019-01-26T04:12:04.265Z,0
2019-01-26T04:13:04.236Z,0
2019-01-26T04:14:03.982Z,0
2019-01-26T04:15:04.553Z,0
2019-01-26T04:16:04.434Z,0
2019-01-26T04:17:04.168Z,0
2019-01-26T04:18:04.385Z,0
2019-01-26T04:19:04.370Z,0
2019-01-26T04:20:04.358Z,0
2019-01-26T04:21:04.329Z,0
2019-01-26T04:22:04.063Z,0
2019-01-26T04:23:04.043Z,0
2019-01-26T04:24:04.266Z,0
2019-01-26T04:25:04.295Z,0
2019-01-26T04:26:04.231Z,0
2019-01-26T04:27:03.949Z,0
2019-01-26T04:28:04.188Z,0
2019-01-26T04:29:04.187Z,0
2019-01-26T04:30:04.149Z,0
2019-01-26T04:31:03.874Z,0
2019-01-26T04:32:04.124Z,0
2019-01-26T04:33:03.838Z,0
2019-01-26T04:34:04.056Z,0
2019-01-26T04:35:04.044Z,0
2019-01-26T04:36:04.011Z,0
2019-01-26T04:37:04.011Z,0
2019-01-26T04:38:03.725Z,0
2019-01-26T04:39:03.964Z,0
2019-01-26T04:40:03.696Z,0
2019-01-26T04:41:03.666Z,0
2019-01-26T04:42:03.914Z,0
2019-01-26T04:43:03.898Z,0
2019-01-26T04:44:03.856Z,0
2019-01-26T04:45:03.843Z,0
2019-01-26T04:46:03.566Z,0
2019-01-26T04:47:03.823Z,0
2019-01-26T04:48:03.555Z,0
2019-01-26T04:49:03.754Z,0
2019-01-26T04:50:03.723Z,0
2019-01-26T04:51:03.709Z,0
2019-01-26T04:52:03.700Z,0
2019-01-26T04:53:03.667Z,0
2019-01-26T04:54:03.691Z,0
2019-01-26T04:55:03.620Z,0
2019-01-26T04:56:03.608Z,0
2019-01-26T04:57:03.580Z,0
2019-01-26T04:58:03.558Z,0
2019-01-26T04:59:03.305Z,0
2019-01-26T05:00:03.526Z,0
2019-01-26T05:01:03.538Z,0
2019-01-26T05:02:03.235Z,0
2019-01-26T05:03:03.211Z,0
2019-01-26T05:04:03.437Z,0
2019-01-26T05:05:03.166Z,0
2019-01-26T05:06:02.903Z,0
2019-01-26T05:07:03.376Z,0
2019-01-26T05:08:03.108Z,0
2019-01-26T05:09:03.083Z,0
2019-01-26T05:10:03.313Z,0
2019-01-26T05:11:03.391Z,0
2019-01-26T05:12:03.281Z,0
2019-01-26T05:13:03.250Z,0
2019-01-26T05:14:03.228Z,0
2019-01-26T05:15:03.206Z,0
2019-01-26T05:16:02.938Z,0
2019-01-26T05:17:03.181Z,0
2019-01-26T05:18:02.898Z,0
2019-01-26T05:19:03.129Z,0
2019-01-26T05:20:03.110Z,0
2019-01-26T05:21:02.854Z,0
2019-01-26T05:22:03.067Z,0
2019-01-26T05:23:02.815Z,0
2019-01-26T05:24:03.024Z,0
2019-01-26T05:25:03.030Z,0
2019-01-26T05:26:02.746Z,0
2019-01-26T05:27:02.964Z,0
2019-01-26T05:28:02.943Z,0
2019-01-26T05:29:02.923Z,0
2019-01-26T05:30:03.000Z,0
2019-01-26T05:31:02.637Z,0
2019-01-26T05:32:02.616Z,0
2019-01-26T05:33:02.593Z,0
2019-01-26T05:34:02.571Z,0
2019-01-26T05:35:02.797Z,0
2019-01-26T05:36:02.641Z,0
2019-01-26T05:37:02.762Z,0
2019-01-26T05:38:02.763Z,0
2019-01-26T05:39:02.480Z,0
2019-01-26T05:40:02.697Z,0
2019-01-26T05:41:02.681Z,0
2019-01-26T05:42:02.652Z,0
2019-01-26T05:43:02.637Z,0
2019-01-26T05:44:02.385Z,0
2019-01-26T05:45:02.643Z,0
2019-01-26T05:46:02.574Z,0
2019-01-26T05:47:02.306Z,0
2019-01-26T05:48:02.360Z,0
2019-01-26T05:49:02.509Z,0
2019-01-26T05:50:02.690Z,0
2019-01-26T05:51:02.222Z,0
2019-01-26T05:52:02.497Z,0
2019-01-26T05:53:02.432Z,0
2019-01-26T05:54:01.910Z,0
2019-01-26T05:55:02.385Z,0
2019-01-26T05:56:02.369Z,0
2019-01-26T05:57:02.354Z,0
2019-01-26T05:58:02.336Z,0
2019-01-26T05:59:02.731Z,0
2019-01-26T06:00:02.303Z,0
2019-01-26T06:01:02.016Z,0
2019-01-26T06:02:02.009Z,0
2019-01-26T06:03:02.232Z,0
2019-01-26T06:04:02.210Z,0
2019-01-26T06:05:02.198Z,0
2019-01-26T06:06:01.917Z,0
2019-01-26T06:07:02.146Z,0
2019-01-26T06:08:01.914Z,0
2019-01-26T06:09:02.110Z,0
2019-01-26T06:10:02.093Z,0
2019-01-26T06:11:02.063Z,0
2019-01-26T06:12:02.045Z,0
2019-01-26T06:13:03.698Z,0
2019-01-26T06:14:02.016Z,0
2019-01-26T06:15:01.744Z,0
2019-01-26T06:16:01.967Z,0
2019-01-26T06:17:01.952Z,0
2019-01-26T06:18:04.836Z,0
2019-01-26T06:19:01.899Z,0
2019-01-26T06:20:01.631Z,0
2019-01-26T06:21:01.859Z,0
2019-01-26T06:22:01.842Z,0
2019-01-26T06:23:01.828Z,0
2019-01-26T06:24:01.553Z,0
2019-01-26T06:25:01.535Z,0
2019-01-26T06:26:01.767Z,0
2019-01-26T06:27:01.739Z,0
2019-01-26T06:28:01.474Z,0
2019-01-26T06:29:01.704Z,0
2019-01-26T06:30:01.184Z,0
2019-01-26T06:31:01.655Z,0
2019-01-26T06:32:01.640Z,0
2019-01-26T06:33:01.618Z,0
2019-01-26T06:34:01.107Z,0
2019-01-26T06:35:01.583Z,0
2019-01-26T06:36:01.076Z,0
2019-01-26T06:37:01.704Z,0
2019-01-26T06:38:01.271Z,0
2019-01-26T06:39:02.784Z,0
2019-01-26T06:40:01.479Z,0
2019-01-26T06:41:01.210Z,0
2019-01-26T06:42:01.214Z,0
2019-01-26T06:43:01.419Z,0
2019-01-26T06:44:01.439Z,0
2019-01-26T06:45:01.396Z,0
2019-01-26T06:46:01.356Z,0
2019-01-26T06:47:01.329Z,0
2019-01-26T06:48:06.995Z,0
2019-01-26T06:49:01.050Z,0
2019-01-26T06:50:01.029Z,0
2019-01-26T06:51:01.259Z,0
2019-01-26T06:52:00.743Z,0
2019-01-26T06:53:01.228Z,0
2019-01-26T06:54:00.950Z,0
2019-01-26T06:56:55.916Z,0
2019-01-26T06:57:05.628Z,0
2019-01-26T06:58:05.607Z,0
2019-01-26T06:59:05.837Z,0
2019-01-26T07:00:05.818Z,0
2019-01-26T07:01:05.841Z,0
2019-01-26T07:02:05.818Z,0
2019-01-26T07:03:05.313Z,0
2019-01-26T07:04:05.782Z,0
2019-01-26T07:05:05.519Z,0
2019-01-26T07:06:05.748Z,0
2019-01-26T07:07:05.474Z,0
2019-01-26T07:08:05.702Z,0
2019-01-26T07:09:05.426Z,0
2019-01-26T07:10:05.672Z,0
2019-01-26T07:11:06.983Z,0
2019-01-26T07:12:05.628Z,0
2019-01-26T07:13:05.614Z,0
2019-01-26T07:14:05.335Z,0
2019-01-26T07:15:05.568Z,0
2019-01-26T07:16:05.298Z,0
2019-01-26T07:17:05.531Z,0
2019-01-26T07:18:11.685Z,0
2019-01-26T07:19:05.484Z,0
2019-01-26T07:20:05.488Z,0
2019-01-26T07:21:05.194Z,0
2019-01-26T07:22:05.180Z,0
2019-01-26T07:23:05.157Z,5
2019-01-26T07:24:05.131Z,5
2019-01-26T07:25:05.366Z,5
2019-01-26T07:26:05.341Z,5
2019-01-26T07:27:05.327Z,5
2019-01-26T07:28:05.063Z,5
2019-01-26T07:29:05.279Z,5
2019-01-26T07:30:05.321Z,5
2019-01-26T07:31:06.572Z,5
2019-01-26T07:32:04.736Z,5
2019-01-26T07:33:05.209Z,5
2019-01-26T07:34:04.944Z,5
2019-01-26T07:35:04.931Z,5
2019-01-26T07:36:05.143Z,5
2019-01-26T07:37:05.122Z,5
2019-01-26T07:38:04.866Z,5
2019-01-26T07:39:05.112Z,5
2019-01-26T07:40:05.066Z,5
2019-01-26T07:41:04.792Z,5
2019-01-26T07:42:05.019Z,5
2019-01-26T07:43:04.758Z,10
2019-01-26T07:44:04.995Z,10
2019-01-26T07:45:04.971Z,10
2019-01-26T07:46:04.697Z,10
2019-01-26T07:47:04.928Z,10
2019-01-26T07:48:04.904Z,10
2019-01-26T07:49:04.891Z,10
2019-01-26T07:50:04.986Z,10
2019-01-26T07:51:04.599Z,10
2019-01-26T07:52:04.576Z,10
2019-01-26T07:53:04.558Z,10
2019-01-26T07:54:04.543Z,10
2019-01-26T07:55:04.759Z,15
2019-01-26T07:56:04.751Z,15
2019-01-26T07:57:04.736Z,15
2019-01-26T07:58:04.713Z,15
2019-01-26T07:59:04.438Z,15
2019-01-26T08:00:04.421Z,15
2019-01-26T08:01:04.652Z,15
2019-01-26T08:02:04.625Z,15
2019-01-26T08:03:04.613Z,10
2019-01-26T08:04:04.348Z,10
2019-01-26T08:05:04.567Z,10
2019-01-26T08:06:04.559Z,15
2019-01-26T08:07:04.281Z,15
2019-01-26T08:08:04.522Z,15
2019-01-26T08:09:04.496Z,15
2019-01-26T08:10:04.226Z,15
2019-01-26T08:11:04.451Z,15
2019-01-26T08:12:04.435Z,15
2019-01-26T08:13:04.167Z,15
2019-01-26T08:14:04.142Z,15
2019-01-26T08:15:04.128Z,15
2019-01-26T08:16:04.353Z,20
2019-01-26T08:17:04.128Z,20
2019-01-26T08:18:04.311Z,20
2019-01-26T08:19:03.800Z,20
2019-01-26T08:20:04.278Z,20
2019-01-26T08:21:04.260Z,20
2019-01-26T08:22:04.232Z,20
2019-01-26T08:23:04.219Z,20
2019-01-26T08:24:04.199Z,25
2019-01-26T08:25:03.691Z,25
2019-01-26T08:26:03.659Z,25
2019-01-26T08:27:03.891Z,25
2019-01-26T08:28:04.117Z,25
2019-01-26T08:29:04.104Z,25
2019-01-26T08:30:03.586Z,25
2019-01-26T08:31:04.058Z,25
2019-01-26T08:32:03.554Z,25
2019-01-26T08:33:04.120Z,25
2019-01-26T08:34:03.762Z,25
2019-01-26T08:35:03.731Z,25
2019-01-26T08:36:03.971Z,25
2019-01-26T08:37:03.942Z,25
2019-01-26T08:38:03.923Z,25
2019-01-26T08:39:03.918Z,25
2019-01-26T08:40:03.756Z,25
2019-01-26T08:41:03.615Z,30
2019-01-26T08:42:03.602Z,35
2019-01-26T08:43:03.830Z,40
2019-01-26T08:44:03.558Z,35
2019-01-26T08:45:03.543Z,35
2019-01-26T08:46:03.520Z,30
2019-01-26T08:47:03.749Z,30
2019-01-26T08:48:03.733Z,30
2019-01-26T08:49:03.779Z,35
2019-01-26T08:50:03.693Z,35
2019-01-26T08:51:03.669Z,40
2019-01-26T08:52:03.654Z,40
2019-01-26T08:53:03.641Z,40
2019-01-26T08:54:03.370Z,40
2019-01-26T08:55:03.593Z,40
2019-01-26T08:56:03.575Z,40
2019-01-26T08:57:03.567Z,40
2019-01-26T08:58:03.551Z,45
2019-01-26T08:59:03.290Z,45
2019-01-26T09:00:03.503Z,50
2019-01-26T09:01:03.488Z,45
2019-01-26T09:02:03.483Z,45
2019-01-26T09:03:03.197Z,45
2019-01-26T09:04:03.424Z,40
2019-01-26T09:05:03.408Z,45
2019-01-26T09:06:03.397Z,45
2019-01-26T09:07:03.363Z,50
2019-01-26T09:08:03.108Z,50
2019-01-26T09:09:03.329Z,55
2019-01-26T09:10:03.308Z,50
2019-01-26T09:11:03.288Z,50
2019-01-26T09:12:03.276Z,50
2019-01-26T09:13:03.255Z,45
2019-01-26T09:14:03.241Z,45
2019-01-26T09:15:03.220Z,45
2019-01-26T09:16:03.205Z,45
2019-01-26T09:17:03.190Z,45
2019-01-26T09:18:02.915Z,45
2019-01-26T09:19:02.890Z,45
2019-01-26T09:20:03.143Z,45
2019-01-26T09:21:03.101Z,45
2019-01-26T09:22:03.088Z,45
2019-01-26T09:23:03.073Z,50
2019-01-26T09:24:03.100Z,45
2019-01-26T09:25:03.042Z,45
2019-01-26T09:26:03.015Z,45
2019-01-26T09:27:02.991Z,45
2019-01-26T09:28:02.968Z,45
2019-01-26T09:29:02.703Z,45
2019-01-26T09:30:02.944Z,45
2019-01-26T09:31:02.920Z,50
2019-01-26T09:32:02.903Z,45
2019-01-26T09:33:02.876Z,45
2019-01-26T09:34:02.611Z,45
2019-01-26T09:35:02.936Z,45
2019-01-26T09:36:02.821Z,45
2019-01-26T09:37:02.829Z,45
2019-01-26T09:38:02.545Z,45
2019-01-26T09:39:02.772Z,45
2019-01-26T09:40:02.804Z,45
2019-01-26T09:41:02.739Z,45
2019-01-26T09:42:02.214Z,50
2019-01-26T09:43:02.697Z,50
2019-01-26T09:44:02.425Z,50
2019-01-26T09:45:02.650Z,50
2019-01-26T09:46:02.642Z,50
2019-01-26T09:47:02.622Z,45
2019-01-26T09:48:02.755Z,45
2019-01-26T09:49:02.352Z,45
2019-01-26T09:50:02.607Z,45
2019-01-26T09:51:02.554Z,45
2019-01-26T09:52:02.277Z,50
2019-01-26T09:53:02.519Z,50
2019-01-26T09:54:02.490Z,55
2019-01-26T09:55:02.578Z,55
2019-01-26T09:56:02.491Z,50
2019-01-26T09:57:02.432Z,50
2019-01-26T09:58:02.168Z,50
2019-01-26T09:59:02.401Z,50
2019-01-26T10:00:02.381Z,45
2019-01-26T10:01:02.370Z,45
2019-01-26T10:02:02.350Z,45
2019-01-26T10:03:02.080Z,50
2019-01-26T10:04:02.358Z,50
2019-01-26T10:05:02.045Z,50
2019-01-26T10:06:02.270Z,50
2019-01-26T10:07:02.258Z,50
2019-01-26T10:08:02.241Z,55
2019-01-26T10:09:02.021Z,55
2019-01-26T10:10:02.466Z,50
2019-01-26T10:11:02.515Z,45
2019-01-26T10:12:02.160Z,45
2019-01-26T10:13:02.154Z,50
2019-01-26T10:14:02.175Z,45
2019-01-26T10:15:02.108Z,40
2019-01-26T10:16:02.094Z,40
2019-01-26T10:17:02.071Z,40
2019-01-26T10:18:02.077Z,40
2019-01-26T10:19:03.349Z,40
2019-01-26T10:20:01.522Z,45
2019-01-26T10:21:01.999Z,45
2019-01-26T10:22:01.999Z,45
2019-01-26T10:23:01.709Z,45
2019-01-26T10:24:02.269Z,45
2019-01-26T10:25:01.927Z,45
2019-01-26T10:26:01.914Z,45
2019-01-26T10:27:01.887Z,45
2019-01-26T10:28:01.877Z,45
2019-01-26T10:29:01.846Z,45
2019-01-26T10:30:01.830Z,50
2019-01-26T10:31:01.563Z,45
2019-01-26T10:32:01.548Z,50
2019-01-26T10:33:01.538Z,50
2019-01-26T10:34:01.755Z,45
2019-01-26T10:35:01.739Z,45
2019-01-26T10:36:01.763Z,50
2019-01-26T10:37:01.704Z,50
2019-01-26T10:38:01.193Z,50
2019-01-26T10:39:02.888Z,50
2019-01-26T10:40:01.399Z,45
2019-01-26T10:41:01.388Z,45
2019-01-26T10:42:01.364Z,45
2019-01-26T10:43:01.350Z,50
2019-01-26T10:44:01.624Z,50
2019-01-26T10:45:01.560Z,45
2019-01-26T10:46:01.555Z,45
2019-01-26T10:47:01.523Z,45
2019-01-26T10:48:01.505Z,45
2019-01-26T10:49:07.942Z,45
2019-01-26T10:50:01.471Z,45
2019-01-26T10:51:02.581Z,45
2019-01-26T10:52:01.192Z,40
2019-01-26T10:53:01.163Z,35
2019-01-26T10:54:01.158Z,35
2019-01-26T10:55:00.885Z,40
2019-01-26T10:56:01.364Z,40
2019-01-26T10:57:01.346Z,40
2019-01-26T10:58:01.327Z,35
2019-01-26T10:59:00.805Z,35
2019-01-26T11:00:01.285Z,35
2019-01-26T11:01:01.075Z,35
2019-01-26T11:02:01.253Z,40
2019-01-26T11:03:01.239Z,40
2019-01-26T11:04:00.978Z,40
2019-01-26T11:05:01.001Z,40
2019-01-26T11:06:01.176Z,40
2019-01-26T11:07:01.491Z,40
2019-01-26T11:08:00.906Z,40
2019-01-26T11:09:01.168Z,40
2019-01-26T11:10:01.442Z,40
2019-01-26T11:11:01.089Z,40
2019-01-26T11:12:00.826Z,40
2019-01-26T11:13:00.803Z,35
2019-01-26T11:14:01.036Z,35
2019-01-26T11:15:01.018Z,35
2019-01-26T11:16:00.998Z,40
2019-01-26T11:17:00.988Z,40
2019-01-26T11:18:00.962Z,40
2019-01-26T11:19:07.626Z,40
2019-01-26T11:20:00.922Z,40
2019-01-26T11:21:00.912Z,35
2019-01-26T11:22:00.641Z,35
2019-01-26T11:23:00.654Z,40
2019-01-26T11:24:00.856Z,40
2019-01-26T11:25:00.890Z,40
2019-01-26T11:26:00.591Z,40
2019-01-26T11:27:00.813Z,35
2019-01-26T11:28:00.791Z,35
2019-01-26T11:29:00.764Z,35
2019-01-26T11:30:00.749Z,35
2019-01-26T11:31:00.730Z,35
2019-01-26T11:32:00.716Z,35
2019-01-26T11:33:00.688Z,35
2019-01-26T11:34:00.682Z,35
2019-01-26T11:35:00.413Z,35
2019-01-26T11:36:00.644Z,35
2019-01-26T11:37:00.643Z,35
2019-01-26T11:38:00.602Z,40
2019-01-26T11:39:00.340Z,40
2019-01-26T11:40:00.626Z,40
2019-01-26T11:41:00.296Z,40
2019-01-26T11:42:00.277Z,40
2019-01-26T11:43:00.517Z,40
2019-01-26T11:44:00.004Z,40
2019-01-26T11:45:00.235Z,45
2019-01-26T11:46:00.506Z,50
2019-01-26T11:47:00.190Z,55
2019-01-26T11:48:00.424Z,55
2019-01-26T11:49:00.412Z,55
2019-01-26T11:50:00.383Z,50
2019-01-26T11:51:00.365Z,50
2019-01-26T11:51:59.857Z,45
2019-01-26T11:53:00.103Z,45
2019-01-26T11:54:00.327Z,50
2019-01-26T11:54:59.806Z,50
2019-01-26T11:56:00.276Z,50
2019-01-26T11:57:00.299Z,50
2019-01-26T11:58:00.248Z,55
2019-01-26T11:59:00.022Z,50
2019-01-26T11:59:59.714Z,50
2019-01-26T12:01:06.672Z,50
2019-01-26T12:02:00.173Z,50
2019-01-26T12:02:59.907Z,55
2019-01-26T12:04:00.145Z,60
2019-01-26T12:05:00.250Z,60
2019-01-26T12:05:59.849Z,60
2019-01-26T12:07:00.088Z,55
2019-01-26T12:07:59.820Z,60
2019-01-26T12:09:00.059Z,60
2019-01-26T12:10:00.030Z,65
2019-01-26T12:11:00.016Z,60
2019-01-26T12:12:00.009Z,55
2019-01-26T12:12:59.740Z,55
2019-01-26T12:13:59.961Z,60
2019-01-26T12:14:59.943Z,65
2019-01-26T12:16:00.081Z,60
2019-01-26T12:16:59.910Z,60
2019-01-26T12:17:59.886Z,55
2019-01-26T12:18:59.868Z,60
2019-01-26T12:19:59.858Z,60
2019-01-26T12:20:59.884Z,60
2019-01-26T12:21:59.873Z,60
2019-01-26T12:22:59.803Z,60
2019-01-26T12:23:59.787Z,60
2019-01-26T12:24:59.768Z,60
2019-01-26T12:25:59.751Z,60
2019-01-26T12:26:59.725Z,60
2019-01-26T12:27:59.224Z,60
2019-01-26T12:28:58.705Z,60
2019-01-26T12:29:59.427Z,55
2019-01-26T12:30:59.667Z,55
2019-01-26T12:31:59.648Z,55
2019-01-26T12:32:59.620Z,55
2019-01-26T12:33:59.612Z,55
2019-01-26T12:34:59.103Z,55
2019-01-26T12:35:59.576Z,55
2019-01-26T12:36:59.550Z,55
2019-01-26T12:37:59.533Z,60
2019-01-26T12:38:59.278Z,60
2019-01-26T12:39:59.265Z,55
2019-01-26T12:40:59.533Z,55
2019-01-26T12:41:59.224Z,60
2019-01-26T12:42:59.458Z,65
2019-01-26T12:43:59.181Z,60
2019-01-26T12:44:59.164Z,60
2019-01-26T12:45:58.894Z,55
2019-01-26T12:46:59.379Z,60
2019-01-26T12:47:59.359Z,60
2019-01-26T12:48:59.345Z,65
2019-01-26T12:49:59.321Z,65
2019-01-26T12:50:59.054Z,60
2019-01-26T12:51:59.039Z,55
2019-01-26T12:52:59.024Z,55
2019-01-26T12:53:59.007Z,55
2019-01-26T12:54:59.239Z,60
2019-01-26T12:55:59.269Z,55
2019-01-26T12:56:59.205Z,50
2019-01-26T12:57:59.193Z,50
2019-01-26T12:58:59.391Z,55
2019-01-26T12:59:58.904Z,50
2019-01-26T13:00:59.283Z,50
2019-01-26T13:01:59.120Z,55
2019-01-26T13:02:58.847Z,55
2019-01-26T13:03:58.838Z,50
2019-01-26T13:04:59.320Z,50
2019-01-26T13:05:59.041Z,50
2019-01-26T13:06:58.792Z,50
2019-01-26T13:07:59.011Z,55
2019-01-26T13:08:58.990Z,60
2019-01-26T13:09:58.722Z,55
2019-01-26T13:10:58.973Z,55
2019-01-26T13:11:58.935Z,55
2019-01-26T13:12:58.671Z,55
2019-01-26T13:13:59.159Z,50
2019-01-26T13:14:58.886Z,50
2019-01-26T13:15:58.862Z,50
2019-01-26T13:16:58.897Z,55
2019-01-26T13:17:58.335Z,55
2019-01-26T13:18:58.814Z,60
2019-01-26T13:19:58.547Z,55
2019-01-26T13:20:58.776Z,55
2019-01-26T13:21:58.559Z,55
2019-01-26T13:22:58.490Z,55
2019-01-26T13:23:58.727Z,60
2019-01-26T13:24:58.210Z,60
2019-01-26T13:25:58.701Z,55
2019-01-26T13:26:59.194Z,55
2019-01-26T13:27:58.406Z,60
2019-01-26T13:28:58.636Z,60
2019-01-26T13:29:58.363Z,65
2019-01-26T13:30:58.599Z,60
2019-01-26T13:31:58.587Z,55
2019-01-26T13:32:58.570Z,50
2019-01-26T13:33:58.546Z,50
2019-01-26T13:34:59.799Z,50
2019-01-26T13:35:58.512Z,45
2019-01-26T13:36:58.741Z,45
2019-01-26T13:37:58.227Z,45
2019-01-26T13:38:58.449Z,50
2019-01-26T13:39:58.477Z,45
2019-01-26T13:40:58.490Z,45
2019-01-26T13:41:58.454Z,45
2019-01-26T13:42:58.143Z,45
2019-01-26T13:43:58.364Z,45
2019-01-26T13:44:58.349Z,45
2019-01-26T13:45:58.331Z,40
2019-01-26T13:46:58.313Z,45
2019-01-26T13:47:58.296Z,45
2019-01-26T13:48:58.027Z,45
2019-01-26T13:49:58.263Z,50
2019-01-26T13:50:58.243Z,55
2019-01-26T13:51:58.224Z,50
2019-01-26T13:52:57.709Z,50
2019-01-26T13:53:58.191Z,55
2019-01-26T13:54:58.169Z,55
2019-01-26T13:55:58.159Z,55
2019-01-26T13:56:58.200Z,60
2019-01-26T13:57:58.115Z,60
2019-01-26T13:58:58.104Z,65
2019-01-26T13:59:58.083Z,60
2019-01-26T14:00:57.813Z,60
2019-01-26T14:01:58.102Z,60
2019-01-26T14:02:57.773Z,60
2019-01-26T14:03:58.019Z,60
2019-01-26T14:04:58.000Z,55
2019-01-26T14:05:57.993Z,50
2019-01-26T14:06:57.963Z,55
2019-01-26T14:07:58.098Z,50
2019-01-26T14:08:57.926Z,50
2019-01-26T14:09:57.669Z,50
2019-01-26T14:10:57.889Z,50
2019-01-26T14:11:57.383Z,50
2019-01-26T14:12:57.855Z,50
2019-01-26T14:13:57.586Z,45
2019-01-26T14:14:57.316Z,45
2019-01-26T14:15:57.798Z,50
2019-01-26T14:16:57.828Z,50
2019-01-26T14:17:57.762Z,45
2019-01-26T14:18:57.749Z,45
2019-01-26T14:20:00.954Z,50
2019-01-26T14:20:57.461Z,50
2019-01-26T14:21:57.737Z,50
2019-01-26T14:22:57.667Z,50
2019-01-26T14:23:57.403Z,50
2019-01-26T14:24:57.640Z,50
2019-01-26T14:25:57.614Z,45
2019-01-26T14:26:59.455Z,50
2019-01-26T14:27:57.359Z,50
2019-01-26T14:28:57.318Z,50
2019-01-26T14:29:57.305Z,50
2019-01-26T14:30:57.528Z,50
2019-01-26T14:31:57.274Z,50
2019-01-26T14:33:02.081Z,50